Takaoka, Japan
Current Conditions -  °F | °C
As of 7:00 AM on Sunday 26 Oct 2014 (Local Time) from RJNT Reporting Station
Few Clouds Few Clouds  
Wind Chill: 63°   Ceiling: Unl
Heat Index: 63°   Visibility: 6mi
Dew Point: 46°   Wind: 12mph
Humidity: 55%   Direction: 180°S
Pressure: 30.12"   Gusts: NA
Location:  36.75°N, 137.02°E
Report Text: RJNT 252200Z 18010KT 9999 FEW060 17/08 Q1020
Loading
Personal Weather Stations






























Interactive Weather Map
Tropical Storm Tracking
New forecast layout! Learn more

10-Day Weather Forecast

Advertisements
Track Severe Weather on mobile